sensor_id;sensor_type;location;lat;lon;timestamp;pressure;altitude;pressure_sealevel;temperature;humidity
11810;BME280;5962;41.566;23.734;2024-03-07T00:02:09;95279.09;;;10.02;93.93
11810;BME280;5962;41.566;23.734;2024-03-07T00:04:37;95278.84;;;10.03;95.73
11810;BME280;5962;41.566;23.734;2024-03-07T00:07:06;95270.59;;;10.00;96.76
11810;BME280;5962;41.566;23.734;2024-03-07T00:09:35;95275.28;;;9.98;98.35
11810;BME280;5962;41.566;23.734;2024-03-07T00:12:04;95267.59;;;9.96;100.00
11810;BME280;5962;41.566;23.734;2024-03-07T00:14:32;95270.72;;;9.93;100.00
11810;BME280;5962;41.566;23.734;2024-03-07T00:17:02;95262.66;;;9.88;100.00
11810;BME280;5962;41.566;23.734;2024-03-07T00:19:30;95262.91;;;9.87;100.00
11810;BME280;5962;41.566;23.734;2024-03-07T00:21:58;95262.59;;;9.83;100.00
11810;BME280;5962;41.566;23.734;2024-03-07T00:24:28;95265.25;;;9.83;100.00
11810;BME280;5962;41.566;23.734;2024-03-07T00:26:56;95253.78;;;9.78;100.00
11810;BME280;5962;41.566;23.734;2024-03-07T00:29:24;95265.13;;;9.78;100.00
11810;BME280;5962;41.566;23.734;2024-03-07T00:31:52;95256.75;;;9.81;100.00
11810;BME280;5962;41.566;23.734;2024-03-07T00:34:20;95259.28;;;9.76;100.00
11810;BME280;5962;41.566;23.734;2024-03-07T00:36:50;95252.06;;;9.72;100.00
11810;BME280;5962;41.566;23.734;2024-03-07T00:39:18;95249.88;;;9.69;100.00
11810;BME280;5962;41.566;23.734;2024-03-07T00:41:48;95248.63;;;9.71;100.00
11810;BME280;5962;41.566;23.734;2024-03-07T00:44:16;95236.00;;;9.62;100.00
11810;BME280;5962;41.566;23.734;2024-03-07T00:46:44;95237.84;;;9.61;100.00
11810;BME280;5962;41.566;23.734;2024-03-07T00:49:12;95240.75;;;9.76;100.00
11810;BME280;5962;41.566;23.734;2024-03-07T00:51:40;95241.47;;;9.72;100.00
11810;BME280;5962;41.566;23.734;2024-03-07T00:54:08;95237.91;;;9.78;100.00
11810;BME280;5962;41.566;23.734;2024-03-07T00:56:39;95236.59;;;9.64;100.00
11810;BME280;5962;41.566;23.734;2024-03-07T00:59:08;95238.09;;;9.60;100.00
11810;BME280;5962;41.566;23.734;2024-03-07T01:01:36;95238.97;;;9.65;100.00
11810;BME280;5962;41.566;23.734;2024-03-07T01:04:04;95242.66;;;9.64;100.00
11810;BME280;5962;41.566;23.734;2024-03-07T01:06:33;95240.13;;;9.69;100.00
11810;BME280;5962;41.566;23.734;2024-03-07T01:09:01;95236.66;;;9.69;100.00
11810;BME280;5962;41.566;23.734;2024-03-07T01:11:29;95241.38;;;9.67;100.00
11810;BME280;5962;41.566;23.734;2024-03-07T01:13:57;95244.69;;;9.74;100.00
11810;BME280;5962;41.566;23.734;2024-03-07T01:16:26;95239.56;;;9.67;100.00
11810;BME280;5962;41.566;23.734;2024-03-07T01:18:54;95236.59;;;9.64;100.00
11810;BME280;5962;41.566;23.734;2024-03-07T01:21:22;95237.84;;;9.61;100.00
11810;BME280;5962;41.566;23.734;2024-03-07T01:23:50;95242.34;;;9.61;100.00
11810;BME280;5962;41.566;23.734;2024-03-07T01:26:18;95232.47;;;9.56;100.00
11810;BME280;5962;41.566;23.734;2024-03-07T01:28:46;95230.44;;;9.47;100.00
11810;BME280;5962;41.566;23.734;2024-03-07T01:31:14;95236.00;;;9.34;100.00
11810;BME280;5962;41.566;23.734;2024-03-07T01:33:44;95235.44;;;9.32;100.00
11810;BME280;5962;41.566;23.734;2024-03-07T01:36:12;95231.66;;;9.28;100.00
11810;BME280;5962;41.566;23.734;2024-03-07T01:38:40;95225.09;;;9.31;100.00
11810;BME280;5962;41.566;23.734;2024-03-07T01:41:08;95233.03;;;9.31;100.00
11810;BME280;5962;41.566;23.734;2024-03-07T01:43:36;95217.03;;;9.37;100.00
11810;BME280;5962;41.566;23.734;2024-03-07T01:46:04;95225.91;;;9.31;100.00
11810;BME280;5962;41.566;23.734;2024-03-07T01:48:32;95209.03;;;9.21;100.00
11810;BME280;5962;41.566;23.734;2024-03-07T01:51:02;95223.50;;;9.30;100.00
11810;BME280;5962;41.566;23.734;2024-03-07T01:53:31;95228.22;;;9.28;100.00
11810;BME280;5962;41.566;23.734;2024-03-07T01:56:02;95221.31;;;9.27;100.00
11810;BME280;5962;41.566;23.734;2024-03-07T01:58:30;95208.25;;;9.20;100.00
11810;BME280;5962;41.566;23.734;2024-03-07T02:00:59;95217.41;;;9.29;100.00
11810;BME280;5962;41.566;23.734;2024-03-07T02:03:27;95223.97;;;9.27;100.00
11810;BME280;5962;41.566;23.734;2024-03-07T02:05:55;95214.53;;;9.31;100.00
11810;BME280;5962;41.566;23.734;2024-03-07T02:08:25;95208.63;;;9.40;100.00
11810;BME280;5962;41.566;23.734;2024-03-07T02:10:53;95211.59;;;9.43;100.00
11810;BME280;5962;41.566;23.734;2024-03-07T02:13:21;95218.16;;;9.41;100.00
11810;BME280;5962;41.566;23.734;2024-03-07T02:15:49;95223.69;;;9.39;100.00
11810;BME280;5962;41.566;23.734;2024-03-07T02:18:17;95217.72;;;9.32;100.00
11810;BME280;5962;41.566;23.734;2024-03-07T02:20:46;95230.53;;;9.24;100.00
11810;BME280;5962;41.566;23.734;2024-03-07T02:23:15;95219.38;;;9.22;100.00
11810;BME280;5962;41.566;23.734;2024-03-07T02:25:43;95233.38;;;9.23;100.00
11810;BME280;5962;41.566;23.734;2024-03-07T02:28:11;95227.63;;;9.26;100.00
11810;BME280;5962;41.566;23.734;2024-03-07T02:30:39;95227.22;;;9.17;100.00
11810;BME280;5962;41.566;23.734;2024-03-07T02:33:07;95197.75;;;8.97;100.00
11810;BME280;5962;41.566;23.734;2024-03-07T02:35:36;95231.22;;;9.20;100.00
11810;BME280;5962;41.566;23.734;2024-03-07T02:38:06;95222.38;;;9.14;100.00
11810;BME280;5962;41.566;23.734;2024-03-07T02:40:34;95223.53;;;9.18;100.00
11810;BME280;5962;41.566;23.734;2024-03-07T02:43:03;95229.28;;;9.15;100.00
11810;BME280;5962;41.566;23.734;2024-03-07T02:45:31;95230.41;;;9.19;100.00
11810;BME280;5962;41.566;23.734;2024-03-07T02:47:59;95228.34;;;9.21;100.00
11810;BME280;5962;41.566;23.734;2024-03-07T02:50:28;95234.50;;;9.38;100.00
11810;BME280;5962;41.566;23.734;2024-03-07T02:52:56;95222.88;;;9.39;100.00
11810;BME280;5962;41.566;23.734;2024-03-07T02:55:26;95232.66;;;9.38;100.00
11810;BME280;5962;41.566;23.734;2024-03-07T02:57:54;95236.09;;;9.39;100.00
11810;BME280;5962;41.566;23.734;2024-03-07T03:00:24;95237.25;;;9.32;100.00
11810;BME280;5962;41.566;23.734;2024-03-07T03:02:56;95230.47;;;9.35;100.00
11810;BME280;5962;41.566;23.734;2024-03-07T03:05:24;95226.69;;;9.32;100.00
11810;BME280;5962;41.566;23.734;2024-03-07T03:07:52;95228.06;;;9.34;100.00
11810;BME280;5962;41.566;23.734;2024-03-07T03:10:21;95225.19;;;9.35;100.00
11810;BME280;5962;41.566;23.734;2024-03-07T03:12:54;95219.31;;;9.33;100.00
11810;BME280;5962;41.566;23.734;2024-03-07T03:15:24;95216.22;;;9.36;100.00
11810;BME280;5962;41.566;23.734;2024-03-07T03:17:52;95223.13;;;9.37;100.00
11810;BME280;5962;41.566;23.734;2024-03-07T03:20:20;95221.50;;;9.36;100.00
11810;BME280;5962;41.566;23.734;2024-03-07T03:22:52;95207.41;;;9.31;100.00
11810;BME280;5962;41.566;23.734;2024-03-07T03:25:28;95222.53;;;9.35;100.00
11810;BME280;5962;41.566;23.734;2024-03-07T03:28:01;95220.72;;;9.36;100.00
11810;BME280;5962;41.566;23.734;2024-03-07T03:30:30;95221.50;;;9.36;100.00
11810;BME280;5962;41.566;23.734;2024-03-07T03:32:59;95230.78;;;9.39;100.00
11810;BME280;5962;41.566;23.734;2024-03-07T03:35:27;95231.28;;;9.36;100.00
11810;BME280;5962;41.566;23.734;2024-03-07T03:37:55;95233.94;;;9.36;100.00
11810;BME280;5962;41.566;23.734;2024-03-07T03:40:23;95231.28;;;9.36;100.00
11810;BME280;5962;41.566;23.734;2024-03-07T03:42:51;95215.63;;;9.46;100.00
11810;BME280;5962;41.566;23.734;2024-03-07T03:45:21;95207.06;;;9.28;100.00
11810;BME280;5962;41.566;23.734;2024-03-07T03:47:49;95197.69;;;9.09;100.00
11810;BME280;5962;41.566;23.734;2024-03-07T03:50:17;95196.28;;;8.90;100.00
11810;BME280;5962;41.566;23.734;2024-03-07T03:52:45;95199.19;;;8.77;100.00
11810;BME280;5962;41.566;23.734;2024-03-07T03:55:13;95205.13;;;8.72;100.00
11810;BME280;5962;41.566;23.734;2024-03-07T03:57:42;95197.31;;;8.77;100.00
11810;BME280;5962;41.566;23.734;2024-03-07T04:00:11;95192.63;;;8.79;100.00
11810;BME280;5962;41.566;23.734;2024-03-07T04:02:42;95189.38;;;8.89;100.00
11810;BME280;5962;41.566;23.734;2024-03-07T04:05:11;95192.94;;;8.94;100.00
11810;BME280;5962;41.566;23.734;2024-03-07T04:07:40;95191.19;;;9.00;100.00
11810;BME280;5962;41.566;23.734;2024-03-07T04:10:09;95191.50;;;9.03;100.00
11810;BME280;5962;41.566;23.734;2024-03-07T04:12:38;95187.38;;;9.07;100.00
11810;BME280;5962;41.566;23.734;2024-03-07T04:15:09;95193.69;;;9.06;100.00
11810;BME280;5962;41.566;23.734;2024-03-07T04:17:37;95196.09;;;9.08;100.00
11810;BME280;5962;41.566;23.734;2024-03-07T04:20:08;95194.03;;;9.10;100.00
11810;BME280;5962;41.566;23.734;2024-03-07T04:22:37;95186.56;;;9.07;100.00
11810;BME280;5962;41.566;23.734;2024-03-07T04:25:07;95193.00;;;8.99;100.00
11810;BME280;5962;41.566;23.734;2024-03-07T04:27:36;95184.06;;;9.00;100.00
11810;BME280;5962;41.566;23.734;2024-03-07T04:30:07;95191.63;;;9.08;100.00
11810;BME280;5962;41.566;23.734;2024-03-07T04:32:37;95191.25;;;9.16;100.00
11810;BME280;5962;41.566;23.734;2024-03-07T04:35:07;95197.81;;;9.14;100.00
11810;BME280;5962;41.566;23.734;2024-03-07T04:37:37;95195.38;;;9.12;100.00
11810;BME280;5962;41.566;23.734;2024-03-07T04:40:07;95203.66;;;9.16;100.00
11810;BME280;5962;41.566;23.734;2024-03-07T04:42:42;95195.75;;;9.16;100.00
11810;BME280;5962;41.566;23.734;2024-03-07T04:45:10;95195.63;;;9.11;100.00
11810;BME280;5962;41.566;23.734;2024-03-07T04:47:40;95208.84;;;9.11;100.00
11810;BME280;5962;41.566;23.734;2024-03-07T04:50:10;95208.47;;;9.19;100.00
11810;BME280;5962;41.566;23.734;2024-03-07T04:52:39;95206.31;;;9.16;100.00
11810;BME280;5962;41.566;23.734;2024-03-07T04:55:08;95212.84;;;9.13;100.00
11810;BME280;5962;41.566;23.734;2024-03-07T04:57:38;95218.13;;;9.13;100.00
11810;BME280;5962;41.566;23.734;2024-03-07T05:00:08;95216.75;;;9.11;100.00
11810;BME280;5962;41.566;23.734;2024-03-07T05:02:40;95221.94;;;9.06;100.00
11810;BME280;5962;41.566;23.734;2024-03-07T05:05:10;95219.53;;;9.04;100.00
11810;BME280;5962;41.566;23.734;2024-03-07T05:07:39;95221.03;;;9.12;100.00
11810;BME280;5962;41.566;23.734;2024-03-07T05:10:08;95227.34;;;9.11;100.00
11810;BME280;5962;41.566;23.734;2024-03-07T05:12:36;95219.97;;;9.13;100.00
11810;BME280;5962;41.566;23.734;2024-03-07T05:15:05;95216.31;;;9.14;100.00
11810;BME280;5962;41.566;23.734;2024-03-07T05:17:36;95215.88;;;9.05;100.00
11810;BME280;5962;41.566;23.734;2024-03-07T05:20:05;95221.41;;;9.04;100.00
11810;BME280;5962;41.566;23.734;2024-03-07T05:22:38;95223.53;;;9.07;100.00
11810;BME280;5962;41.566;23.734;2024-03-07T05:25:07;95231.91;;;9.15;100.00
11810;BME280;5962;41.566;23.734;2024-03-07T05:27:35;95225.47;;;9.23;100.00
11810;BME280;5962;41.566;23.734;2024-03-07T05:30:04;95224.63;;;9.33;100.00
11810;BME280;5962;41.566;23.734;2024-03-07T05:32:38;95224.47;;;9.40;100.00
11810;BME280;5962;41.566;23.734;2024-03-07T05:35:07;95223.28;;;9.47;100.00
11810;BME280;5962;41.566;23.734;2024-03-07T05:37:35;95228.88;;;9.34;100.00
11810;BME280;5962;41.566;23.734;2024-03-07T05:40:06;95227.63;;;9.26;100.00
11810;BME280;5962;41.566;23.734;2024-03-07T05:42:35;95228.69;;;9.25;100.00
11810;BME280;5962;41.566;23.734;2024-03-07T05:45:03;95228.53;;;9.31;100.00
11810;BME280;5962;41.566;23.734;2024-03-07T05:47:34;95236.00;;;9.34;100.00
11810;BME280;5962;41.566;23.734;2024-03-07T05:50:02;95226.00;;;9.36;100.00
11810;BME280;5962;41.566;23.734;2024-03-07T05:52:30;95235.16;;;9.45;100.00
11810;BME280;5962;41.566;23.734;2024-03-07T05:54:58;95227.34;;;9.50;100.00
11810;BME280;5962;41.566;23.734;2024-03-07T05:57:28;95232.13;;;9.53;100.00
11810;BME280;5962;41.566;23.734;2024-03-07T05:59:56;95228.53;;;9.59;100.00
11810;BME280;5962;41.566;23.734;2024-03-07T06:02:24;95229.44;;;9.64;100.00
11810;BME280;5962;41.566;23.734;2024-03-07T06:04:52;95231.94;;;9.71;100.00
11810;BME280;5962;41.566;23.734;2024-03-07T06:07:20;95237.53;;;9.74;100.00
11810;BME280;5962;41.566;23.734;2024-03-07T06:09:48;95237.97;;;9.83;100.00
11810;BME280;5962;41.566;23.734;2024-03-07T06:12:17;95235.41;;;9.88;100.00
11810;BME280;5962;41.566;23.734;2024-03-07T06:14:46;95252.63;;;10.02;100.00
11810;BME280;5962;41.566;23.734;2024-03-07T06:17:15;95244.28;;;10.10;100.00
11810;BME280;5962;41.566;23.734;2024-03-07T06:19:46;95242.94;;;10.07;100.00
11810;BME280;5962;41.566;23.734;2024-03-07T06:22:14;95233.31;;;10.18;100.00
11810;BME280;5962;41.566;23.734;2024-03-07T06:24:42;95232.66;;;10.27;100.00
11810;BME280;5962;41.566;23.734;2024-03-07T06:27:10;95242.44;;;10.43;100.00
11810;BME280;5962;41.566;23.734;2024-03-07T06:30:24;95240.28;;;10.94;100.00
11810;BME280;5962;41.566;23.734;2024-03-07T06:32:52;95238.63;;;11.10;100.00
11810;BME280;5962;41.566;23.734;2024-03-07T06:35:21;95237.19;;;11.19;100.00
11810;BME280;5962;41.566;23.734;2024-03-07T06:37:49;95242.78;;;11.22;100.00
11810;BME280;5962;41.566;23.734;2024-03-07T06:40:17;95236.25;;;11.29;100.00
11810;BME280;5962;41.566;23.734;2024-03-07T06:42:48;95236.06;;;11.36;100.00
11810;BME280;5962;41.566;23.734;2024-03-07T06:45:16;95239.59;;;11.46;100.00
11810;BME280;5962;41.566;23.734;2024-03-07T06:47:46;95231.63;;;11.63;100.00
11810;BME280;5962;41.566;23.734;2024-03-07T06:50:15;95224.91;;;11.55;100.00
11810;BME280;5962;41.566;23.734;2024-03-07T06:52:49;95225.97;;;11.54;100.00
11810;BME280;5962;41.566;23.734;2024-03-07T06:55:18;95241.75;;;11.66;100.00
11810;BME280;5962;41.566;23.734;2024-03-07T06:57:46;95247.00;;;11.61;100.00
11810;BME280;5962;41.566;23.734;2024-03-07T07:00:15;95247.56;;;11.46;100.00
11810;BME280;5962;41.566;23.734;2024-03-07T07:02:47;95254.81;;;11.29;100.00
11810;BME280;5962;41.566;23.734;2024-03-07T07:05:16;95258.06;;;11.15;100.00
11810;BME280;5962;41.566;23.734;2024-03-07T07:07:45;95273.34;;;11.08;100.00
11810;BME280;5962;41.566;23.734;2024-03-07T07:10:13;95277.78;;;10.86;100.00
11810;BME280;5962;41.566;23.734;2024-03-07T07:12:44;95265.22;;;10.60;100.00
11810;BME280;5962;41.566;23.734;2024-03-07T07:15:14;95273.03;;;10.50;100.00
11810;BME280;5962;41.566;23.734;2024-03-07T07:17:43;95267.50;;;10.52;100.00
11810;BME280;5962;41.566;23.734;2024-03-07T07:20:15;95257.03;;;10.45;100.00
11810;BME280;5962;41.566;23.734;2024-03-07T07:22:44;95259.78;;;10.50;100.00
11810;BME280;5962;41.566;23.734;2024-03-07T07:25:13;95254.66;;;10.44;100.00
11810;BME280;5962;41.566;23.734;2024-03-07T07:27:44;95245.72;;;10.33;100.00
11810;BME280;5962;41.566;23.734;2024-03-07T07:30:14;95235.41;;;10.32;100.00
11810;BME280;5962;41.566;23.734;2024-03-07T07:32:43;95238.75;;;10.44;100.00
11810;BME280;5962;41.566;23.734;2024-03-07T07:35:12;95242.75;;;10.46;100.00
11810;BME280;5962;41.566;23.734;2024-03-07T07:37:42;95242.19;;;10.61;100.00
11810;BME280;5962;41.566;23.734;2024-03-07T07:40:12;95245.72;;;10.66;100.00
11810;BME280;5962;41.566;23.734;2024-03-07T07:42:41;95264.44;;;10.60;100.00
11810;BME280;5962;41.566;23.734;2024-03-07T07:45:10;95271.41;;;10.49;100.00
11810;BME280;5962;41.566;23.734;2024-03-07T07:47:39;95270.06;;;10.31;100.00
11810;BME280;5962;41.566;23.734;2024-03-07T07:50:09;95263.69;;;9.99;100.00
11810;BME280;5962;41.566;23.734;2024-03-07T07:52:45;95270.19;;;9.80;100.00
11810;BME280;5962;41.566;23.734;2024-03-07T07:55:14;95283.16;;;9.65;100.00
11810;BME280;5962;41.566;23.734;2024-03-07T07:57:44;95292.59;;;9.49;100.00
11810;BME280;5962;41.566;23.734;2024-03-07T08:00:14;95296.56;;;9.35;100.00
11810;BME280;5962;41.566;23.734;2024-03-07T08:02:49;95301.97;;;9.29;100.00
11810;BME280;5962;41.566;23.734;2024-03-07T08:05:18;95323.38;;;9.16;100.00
11810;BME280;5962;41.566;23.734;2024-03-07T08:07:47;95324.19;;;9.05;100.00
11810;BME280;5962;41.566;23.734;2024-03-07T08:10:16;95304.13;;;8.81;100.00
11810;BME280;5962;41.566;23.734;2024-03-07T08:12:44;95329.94;;;8.56;100.00
11810;BME280;5962;41.566;23.734;2024-03-07T08:15:13;95308.53;;;8.24;100.00
11810;BME280;5962;41.566;23.734;2024-03-07T08:17:42;95328.34;;;8.15;100.00
11810;BME280;5962;41.566;23.734;2024-03-07T08:20:12;95358.78;;;7.99;100.00
11810;BME280;5962;41.566;23.734;2024-03-07T08:22:40;95342.25;;;7.92;100.00
11810;BME280;5962;41.566;23.734;2024-03-07T08:25:11;95368.03;;;7.90;100.00
11810;BME280;5962;41.566;23.734;2024-03-07T08:27:40;95365.50;;;7.84;100.00
11810;BME280;5962;41.566;23.734;2024-03-07T08:30:10;95372.72;;;7.88;100.00
11810;BME280;5962;41.566;23.734;2024-03-07T08:32:39;95366.13;;;7.97;100.00
11810;BME280;5962;41.566;23.734;2024-03-07T08:35:09;95358.03;;;8.10;100.00
11810;BME280;5962;41.566;23.734;2024-03-07T08:37:38;95372.75;;;8.18;100.00
11810;BME280;5962;41.566;23.734;2024-03-07T08:40:08;95386.91;;;8.05;100.00
11810;BME280;5962;41.566;23.734;2024-03-07T08:42:41;95396.53;;;8.00;100.00
11810;BME280;5962;41.566;23.734;2024-03-07T08:45:11;95392.44;;;8.04;100.00
11810;BME280;5962;41.566;23.734;2024-03-07T08:47:43;95379.63;;;7.89;100.00
11810;BME280;5962;41.566;23.734;2024-03-07T08:50:12;95371.38;;;7.68;100.00
11810;BME280;5962;41.566;23.734;2024-03-07T08:52:40;95365.38;;;7.61;100.00
11810;BME280;5962;41.566;23.734;2024-03-07T08:55:11;95363.69;;;7.48;100.00
11810;BME280;5962;41.566;23.734;2024-03-07T08:57:43;95344.06;;;7.44;100.00
11810;BME280;5962;41.566;23.734;2024-03-07T09:00:13;95340.56;;;7.50;100.00
11810;BME280;5962;41.566;23.734;2024-03-07T09:02:50;95356.97;;;7.52;100.00
11810;BME280;5962;41.566;23.734;2024-03-07T09:05:20;95367.63;;;7.57;100.00
11810;BME280;5962;41.566;23.734;2024-03-07T09:07:49;95373.66;;;7.64;100.00
11810;BME280;5962;41.566;23.734;2024-03-07T09:10:18;95374.06;;;7.79;100.00
11810;BME280;5962;41.566;23.734;2024-03-07T09:12:49;95374.84;;;7.98;100.00
11810;BME280;5962;41.566;23.734;2024-03-07T09:15:18;95374.63;;;8.29;100.00
11810;BME280;5962;41.566;23.734;2024-03-07T09:17:48;95376.66;;;8.56;100.00
11810;BME280;5962;41.566;23.734;2024-03-07T09:20:16;95370.47;;;8.85;100.00
11810;BME280;5962;41.566;23.734;2024-03-07T09:22:45;95374.84;;;9.02;100.00
11810;BME280;5962;41.566;23.734;2024-03-07T09:25:15;95373.47;;;9.23;100.00
11810;BME280;5962;41.566;23.734;2024-03-07T09:27:45;95365.97;;;9.42;100.00
11810;BME280;5962;41.566;23.734;2024-03-07T09:30:15;95367.66;;;9.71;100.00
11810;BME280;5962;41.566;23.734;2024-03-07T09:32:46;95360.34;;;9.90;100.00
11810;BME280;5962;41.566;23.734;2024-03-07T09:35:14;95359.41;;;10.24;100.00
11810;BME280;5962;41.566;23.734;2024-03-07T09:37:43;95369.03;;;10.57;100.00
11810;BME280;5962;41.566;23.734;2024-03-07T09:40:12;95367.34;;;10.84;100.00
11810;BME280;5962;41.566;23.734;2024-03-07T09:42:43;95380.75;;;11.11;100.00
11810;BME280;5962;41.566;23.734;2024-03-07T09:45:16;95376.44;;;11.26;100.00
11810;BME280;5962;41.566;23.734;2024-03-07T09:47:45;95379.84;;;11.38;100.00
11810;BME280;5962;41.566;23.734;2024-03-07T09:50:16;95375.06;;;11.40;100.00
11810;BME280;5962;41.566;23.734;2024-03-07T09:52:46;95378.09;;;11.48;100.00
11810;BME280;5962;41.566;23.734;2024-03-07T09:55:16;95387.41;;;11.67;100.00
11810;BME280;5962;41.566;23.734;2024-03-07T09:57:46;95378.66;;;11.88;100.00
11810;BME280;5962;41.566;23.734;2024-03-07T10:00:18;95370.38;;;12.06;100.00
11810;BME280;5962;41.566;23.734;2024-03-07T10:02:56;95379.56;;;12.20;100.00
11810;BME280;5962;41.566;23.734;2024-03-07T10:05:26;95374.19;;;12.15;97.86
11810;BME280;5962;41.566;23.734;2024-03-07T10:07:56;95375.09;;;11.99;92.28
11810;BME280;5962;41.566;23.734;2024-03-07T10:10:24;95370.94;;;12.08;95.43
11810;BME280;5962;41.566;23.734;2024-03-07T10:12:53;95367.28;;;12.40;95.71
11810;BME280;5962;41.566;23.734;2024-03-07T10:15:27;95369.34;;;12.60;95.02
11810;BME280;5962;41.566;23.734;2024-03-07T10:17:55;95370.38;;;12.85;94.48
11810;BME280;5962;41.566;23.734;2024-03-07T10:20:23;95379.84;;;13.03;90.87
11810;BME280;5962;41.566;23.734;2024-03-07T10:22:51;95370.88;;;13.14;87.42
11810;BME280;5962;41.566;23.734;2024-03-07T10:25:21;95348.44;;;13.00;66.79
11810;BME280;5962;41.566;23.734;2024-03-07T10:27:51;95355.88;;;12.98;64.36
11810;BME280;5962;41.566;23.734;2024-03-07T10:30:19;95352.22;;;13.04;61.12
11810;BME280;5962;41.566;23.734;2024-03-07T10:32:51;95345.41;;;12.86;63.76
11810;BME280;5962;41.566;23.734;2024-03-07T10:35:21;95345.41;;;12.86;63.72
11810;BME280;5962;41.566;23.734;2024-03-07T10:37:52;95347.38;;;12.69;62.33
11810;BME280;5962;41.566;23.734;2024-03-07T10:40:20;95339.63;;;12.63;62.70
11810;BME280;5962;41.566;23.734;2024-03-07T10:42:49;95332.09;;;12.55;63.63
11810;BME280;5962;41.566;23.734;2024-03-07T10:45:20;95331.84;;;12.30;63.35
11810;BME280;5962;41.566;23.734;2024-03-07T10:47:55;95317.84;;;12.08;63.71
11810;BME280;5962;41.566;23.734;2024-03-07T10:50:32;95323.84;;;11.99;64.44
11810;BME280;5962;41.566;23.734;2024-03-07T10:53:09;95318.78;;;11.97;65.05
11810;BME280;5962;41.566;23.734;2024-03-07T10:55:51;95317.00;;;12.08;66.17
11810;BME280;5962;41.566;23.734;2024-03-07T10:58:26;95311.22;;;12.11;63.06
11810;BME280;5962;41.566;23.734;2024-03-07T11:00:58;95314.16;;;11.88;65.05
11810;BME280;5962;41.566;23.734;2024-03-07T11:03:28;95304.09;;;11.90;67.18
11810;BME280;5962;41.566;23.734;2024-03-07T11:05:56;95298.88;;;12.00;66.84
11810;BME280;5962;41.566;23.734;2024-03-07T11:08:25;95298.22;;;12.14;64.96
11810;BME280;5962;41.566;23.734;2024-03-07T11:10:54;95298.72;;;12.37;65.16
11810;BME280;5962;41.566;23.734;2024-03-07T11:13:22;95285.75;;;12.72;64.11
11810;BME280;5962;41.566;23.734;2024-03-07T11:15:51;95277.44;;;13.00;63.60
11810;BME280;5962;41.566;23.734;2024-03-07T11:18:24;95284.13;;;13.08;61.61
11810;BME280;5962;41.566;23.734;2024-03-07T11:20:54;95275.69;;;13.16;62.56
11810;BME280;5962;41.566;23.734;2024-03-07T11:23:25;95264.50;;;13.14;62.24
11810;BME280;5962;41.566;23.734;2024-03-07T11:25:56;95258.59;;;13.02;63.02
11810;BME280;5962;41.566;23.734;2024-03-07T11:28:30;95267.28;;;12.92;63.10
11810;BME280;5962;41.566;23.734;2024-03-07T11:31:12;95254.59;;;12.68;63.91
11810;BME280;5962;41.566;23.734;2024-03-07T11:33:41;95253.34;;;12.39;64.85
11810;BME280;5962;41.566;23.734;2024-03-07T11:36:12;95247.91;;;12.29;66.27
11810;BME280;5962;41.566;23.734;2024-03-07T11:38:44;95242.16;;;12.06;66.40
11810;BME280;5962;41.566;23.734;2024-03-07T11:41:14;95233.50;;;11.94;67.00
11810;BME280;5962;41.566;23.734;2024-03-07T11:43:42;95233.06;;;11.75;68.02
11810;BME280;5962;41.566;23.734;2024-03-07T11:46:10;95241.47;;;11.67;70.25
11810;BME280;5962;41.566;23.734;2024-03-07T11:48:43;95228.22;;;11.67;72.01
11810;BME280;5962;41.566;23.734;2024-03-07T11:51:13;95216.78;;;11.67;72.97
11810;BME280;5962;41.566;23.734;2024-03-07T11:53:43;95229.28;;;11.93;71.03
11810;BME280;5962;41.566;23.734;2024-03-07T11:56:14;95232.13;;;12.13;68.73
11810;BME280;5962;41.566;23.734;2024-03-07T11:58:44;95231.97;;;12.24;68.65
11810;BME280;5962;41.566;23.734;2024-03-07T12:01:21;95234.13;;;12.32;68.29
11810;BME280;5962;41.566;23.734;2024-03-07T12:03:52;95222.28;;;12.44;69.98
11810;BME280;5962;41.566;23.734;2024-03-07T12:06:23;95222.47;;;12.74;68.72
11810;BME280;5962;41.566;23.734;2024-03-07T12:08:51;95229.03;;;12.93;67.62
11810;BME280;5962;41.566;23.734;2024-03-07T12:11:19;95223.16;;;12.91;67.32
11810;BME280;5962;41.566;23.734;2024-03-07T12:13:47;95217.06;;;12.96;67.26
11810;BME280;5962;41.566;23.734;2024-03-07T12:16:16;95217.28;;;12.89;66.41
11810;BME280;5962;41.566;23.734;2024-03-07T12:18:44;95212.44;;;12.81;67.37
11810;BME280;5962;41.566;23.734;2024-03-07T12:21:12;95219.63;;;12.86;67.08
11810;BME280;5962;41.566;23.734;2024-03-07T12:23:43;95215.66;;;12.88;67.30
11810;BME280;5962;41.566;23.734;2024-03-07T12:26:11;95206.34;;;12.86;66.84
11810;BME280;5962;41.566;23.734;2024-03-07T12:28:43;95209.56;;;12.88;66.97
11810;BME280;5962;41.566;23.734;2024-03-07T12:31:13;95218.31;;;12.83;67.20
11810;BME280;5962;41.566;23.734;2024-03-07T12:33:43;95205.78;;;12.84;67.22
11810;BME280;5962;41.566;23.734;2024-03-07T12:36:18;95203.50;;;12.92;66.51
11810;BME280;5962;41.566;23.734;2024-03-07T12:38:54;95204.34;;;13.03;65.67
11810;BME280;5962;41.566;23.734;2024-03-07T12:41:23;95204.16;;;13.19;65.10
11810;BME280;5962;41.566;23.734;2024-03-07T12:43:51;95201.00;;;13.32;64.27
11810;BME280;5962;41.566;23.734;2024-03-07T12:46:19;95196.25;;;13.44;63.25
11810;BME280;5962;41.566;23.734;2024-03-07T12:48:47;95200.84;;;13.63;62.89
11810;BME280;5962;41.566;23.734;2024-03-07T12:51:16;95193.72;;;13.79;62.37
11810;BME280;5962;41.566;23.734;2024-03-07T12:53:46;95198.53;;;13.97;61.03
11810;BME280;5962;41.566;23.734;2024-03-07T12:56:15;95190.25;;;13.78;60.76
11810;BME280;5962;41.566;23.734;2024-03-07T12:58:44;95170.25;;;13.61;62.16
11810;BME280;5962;41.566;23.734;2024-03-07T13:01:12;95144.41;;;13.61;62.54
11810;BME280;5962;41.566;23.734;2024-03-07T13:03:41;95144.94;;;13.43;62.61
11810;BME280;5962;41.566;23.734;2024-03-07T13:06:11;95160.63;;;13.40;62.55
11810;BME280;5962;41.566;23.734;2024-03-07T13:08:39;95160.88;;;13.48;62.82
11810;BME280;5962;41.566;23.734;2024-03-07T13:11:07;95146.84;;;13.73;63.66